Time,TemperatureF,DewpointF,PressureIn,WindDirection,WindDirectionDegrees,WindSpeedMPH,WindSpeedGustMPH,Humidity,HourlyPrecipIn,Conditions,Clouds,dailyrainin,SoftwareType,DateUTC
2013-09-15 00:11:00,61.3,61.0,29.41,SW,225,0.0,-999.0,99,-99.99,,,0.00,Acu-Link.com,2013-09-15 07:11:00,
2013-09-15 00:27:00,61.2,60.9,29.42,NW,315,2.2,-999.0,99,-99.99,,,0.00,Acu-Link.com,2013-09-15 07:27:00,
2013-09-15 00:42:00,61.0,60.7,29.41,SW,225,0.0,-999.0,99,-99.99,,,0.00,Acu-Link.com,2013-09-15 07:42:00,
2013-09-15 00:57:00,60.8,60.5,29.41,WNW,292,0.0,-999.0,99,-99.99,,,0.00,Acu-Link.com,2013-09-15 07:57:00,
2013-09-15 01:12:00,60.3,60.0,29.42,NE,45,1.1,-999.0,99,-99.99,,,0.00,Acu-Link.com,2013-09-15 08:12:00,
2013-09-15 01:27:00,60.3,60.0,29.42,SE,135,1.7,-999.0,99,-99.99,,,0.00,Acu-Link.com,2013-09-15 08:27:00,
2013-09-15 01:42:00,60.1,59.8,29.42,WNW,292,2.2,-999.0,99,-99.99,,,0.00,Acu-Link.com,2013-09-15 08:42:00,
2013-09-15 01:58:00,60.1,59.8,29.41,WNW,292,2.2,-999.0,99,-99.99,,,0.00,Acu-Link.com,2013-09-15 08:58:00,
2013-09-15 02:13:00,59.7,59.4,29.41,West,270,5.3,-999.0,99,-99.99,,,0.00,Acu-Link.com,2013-09-15 09:13:00,
2013-09-15 02:28:00,58.8,58.5,29.41,West,270,2.2,-999.0,99,-99.99,,,0.00,Acu-Link.com,2013-09-15 09:28:00,
2013-09-15 02:43:00,58.8,58.5,29.42,SW,225,3.2,-999.0,99,-99.99,,,0.00,Acu-Link.com,2013-09-15 09:43:00,
2013-09-15 02:58:00,58.8,58.5,29.42,South,180,2.7,-999.0,99,-99.99,,,0.00,Acu-Link.com,2013-09-15 09:58:00,
2013-09-15 03:13:00,59.2,58.9,29.42,WNW,292,1.1,-999.0,99,-99.99,,,0.00,Acu-Link.com,2013-09-15 10:13:00,
2013-09-15 03:28:00,59.0,58.7,29.41,WNW,292,3.2,-999.0,99,-99.99,,,0.00,Acu-Link.com,2013-09-15 10:28:00,
2013-09-15 03:44:00,59.0,58.7,29.41,SW,225,1.7,-999.0,99,-99.99,,,0.00,Acu-Link.com,2013-09-15 10:44:00,
2013-09-15 03:59:00,58.8,58.5,29.41,West,270,3.7,-999.0,99,-99.99,,,0.00,Acu-Link.com,2013-09-15 10:59:00,
2013-09-15 04:14:00,58.6,58.3,29.41,WSW,247,3.7,-999.0,99,-99.99,,,0.00,Acu-Link.com,2013-09-15 11:14:00,
2013-09-15 04:29:00,58.3,58.0,29.41,SSW,202,4.7,-999.0,99,-99.99,,,0.00,Acu-Link.com,2013-09-15 11:29:00,
2013-09-15 04:44:00,58.3,58.0,29.41,SSW,202,5.3,-999.0,99,-99.99,,,0.00,Acu-Link.com,2013-09-15 11:44:00,
2013-09-15 04:59:00,58.3,58.0,29.41,WSW,247,3.2,-999.0,99,-99.99,,,0.00,Acu-Link.com,2013-09-15 11:59:00,
2013-09-15 05:14:00,58.3,58.0,29.41,WSW,247,3.7,-999.0,99,-99.99,,,0.00,Acu-Link.com,2013-09-15 12:14:00,
2013-09-15 05:29:00,58.3,58.0,29.41,SSE,157,1.1,-999.0,99,-99.99,,,0.00,Acu-Link.com,2013-09-15 12:29:00,
2013-09-15 05:44:00,58.1,57.8,29.41,SW,225,3.2,-999.0,99,-99.99,,,0.00,Acu-Link.com,2013-09-15 12:44:00,
2013-09-15 06:00:00,58.1,57.8,29.41,SSW,202,2.7,-999.0,99,-99.99,,,0.00,Acu-Link.com,2013-09-15 13:00:00,
2013-09-15 06:15:00,58.1,57.8,29.41,SW,225,0.0,-999.0,99,-99.99,,,0.00,Acu-Link.com,2013-09-15 13:15:00,
2013-09-15 06:30:00,58.1,57.8,29.41,SW,225,3.7,-999.0,99,-99.99,,,0.00,Acu-Link.com,2013-09-15 13:30:00,
2013-09-15 06:45:00,58.1,57.8,29.41,NNW,337,1.7,-999.0,99,-99.99,,,0.00,Acu-Link.com,2013-09-15 13:45:00,
2013-09-15 07:00:00,58.1,57.8,29.42,SSW,202,0.0,-999.0,99,-99.99,,,0.00,Acu-Link.com,2013-09-15 14:00:00,
2013-09-15 07:15:00,58.1,57.8,29.42,WNW,292,2.2,-999.0,99,-99.99,,,0.00,Acu-Link.com,2013-09-15 14:15:00,
2013-09-15 07:31:00,58.3,58.0,29.42,WSW,247,0.0,-999.0,99,-99.99,,,0.00,Acu-Link.com,2013-09-15 14:31:00,
2013-09-15 07:46:00,58.5,58.2,29.41,SSW,202,1.1,-999.0,99,-99.99,,,0.00,Acu-Link.com,2013-09-15 14:46:00,
2013-09-15 08:01:00,58.6,58.3,29.41,SW,225,1.1,-999.0,99,-99.99,,,0.00,Acu-Link.com,2013-09-15 15:01:00,
2013-09-15 08:16:00,58.5,58.2,29.43,SW,225,3.7,-999.0,99,-99.99,,,0.00,Acu-Link.com,2013-09-15 15:16:00,
2013-09-15 08:31:00,58.3,58.0,29.42,SW,225,3.2,-999.0,99,-99.99,,,0.00,Acu-Link.com,2013-09-15 15:31:00,
2013-09-15 08:46:00,58.6,58.3,29.42,SW,225,2.2,-999.0,99,-99.99,,,0.00,Acu-Link.com,2013-09-15 15:46:00,
2013-09-15 09:02:00,58.8,58.5,29.43,ESE,112,0.0,-999.0,99,-99.99,,,0.00,Acu-Link.com,2013-09-15 16:02:00,
2013-09-15 09:17:00,58.8,58.5,29.45,SSW,202,4.2,-999.0,99,-99.99,,,0.00,Acu-Link.com,2013-09-15 16:17:00,
2013-09-15 09:32:00,58.3,58.0,29.44,South,180,4.7,-999.0,99,-99.99,,,0.00,Acu-Link.com,2013-09-15 16:32:00,
2013-09-15 09:47:00,58.3,58.0,29.43,NNW,337,2.7,-999.0,99,-99.99,,,0.00,Acu-Link.com,2013-09-15 16:47:00,
2013-09-15 10:02:00,58.8,58.5,29.43,West,270,0.0,-999.0,99,-99.99,,,0.00,Acu-Link.com,2013-09-15 17:02:00,
2013-09-15 10:17:00,59.5,59.2,29.44,West,270,0.0,-999.0,99,-99.99,,,0.00,Acu-Link.com,2013-09-15 17:17:00,
2013-09-15 10:32:00,60.1,59.8,29.44,West,270,0.0,-999.0,99,-99.99,,,0.00,Acu-Link.com,2013-09-15 17:32:00,
2013-09-15 10:48:00,60.1,59.8,29.43,NNW,337,1.7,-999.0,99,-99.99,,,0.00,Acu-Link.com,2013-09-15 17:48:00,
2013-09-15 11:03:00,61.9,61.6,29.43,ENE,67,2.2,-999.0,99,-99.99,,,0.00,Acu-Link.com,2013-09-15 18:03:00,
2013-09-15 11:18:00,64.0,62.8,29.43,SSE,157,2.2,-999.0,96,-99.99,,,0.00,Acu-Link.com,2013-09-15 18:18:00,
2013-09-15 11:33:00,64.4,62.9,29.44,ESE,112,2.7,-999.0,95,-99.99,,,0.00,Acu-Link.com,2013-09-15 18:33:00,
2013-09-15 11:48:00,65.1,63.3,29.44,East,90,2.2,-999.0,94,-99.99,,,0.00,Acu-Link.com,2013-09-15 18:48:00,
2013-09-15 12:03:00,65.1,63.3,29.44,SSW,202,2.2,-999.0,94,-99.99,,,0.00,Acu-Link.com,2013-09-15 19:03:00,
2013-09-15 12:18:00,67.1,64.1,29.43,SSE,157,0.0,-999.0,90,-99.99,,,0.00,Acu-Link.com,2013-09-15 19:18:00,
2013-09-15 12:33:00,66.6,63.6,29.44,SSW,202,3.2,-999.0,90,-99.99,,,0.00,Acu-Link.com,2013-09-15 19:33:00,
2013-09-15 12:48:00,64.4,62.6,29.44,SSW,202,7.3,-999.0,94,-99.99,,,0.00,Acu-Link.com,2013-09-15 19:48:00,
2013-09-15 13:04:00,64.0,62.8,29.44,SSW,202,8.3,-999.0,96,-99.99,,,0.00,Acu-Link.com,2013-09-15 20:04:00,
2013-09-15 13:19:00,63.5,62.9,29.46,SW,225,1.1,-999.0,98,-99.99,,,0.00,Acu-Link.com,2013-09-15 20:19:00,
2013-09-15 13:34:00,64.0,63.1,29.45,SSE,157,2.2,-999.0,97,-99.99,,,0.00,Acu-Link.com,2013-09-15 20:34:00,
2013-09-15 13:49:00,64.2,62.7,29.45,SW,225,3.2,-999.0,95,-99.99,,,0.00,Acu-Link.com,2013-09-15 20:49:00,
2013-09-15 14:04:00,65.1,63.0,29.45,West,270,0.0,-999.0,93,-99.99,,,0.00,Acu-Link.com,2013-09-15 21:04:00,
2013-09-15 14:19:00,65.3,63.2,29.45,SE,135,1.1,-999.0,93,-99.99,,,0.00,Acu-Link.com,2013-09-15 21:19:00,
2013-09-15 14:35:00,65.8,63.1,29.45,South,180,0.0,-999.0,91,-99.99,,,0.00,Acu-Link.com,2013-09-15 21:35:00,
2013-09-15 14:50:00,65.5,63.1,29.45,South,180,2.2,-999.0,92,-99.99,,,0.00,Acu-Link.com,2013-09-15 21:50:00,
2013-09-15 15:05:00,65.8,63.1,29.45,SW,225,2.2,-999.0,91,-99.99,,,0.00,Acu-Link.com,2013-09-15 22:05:00,
2013-09-15 15:20:00,65.8,63.1,29.46,WSW,247,2.7,-999.0,91,-99.99,,,0.00,Acu-Link.com,2013-09-15 22:20:00,
2013-09-15 15:35:00,66.7,63.4,29.45,East,90,2.7,-999.0,89,-99.99,,,0.00,Acu-Link.com,2013-09-15 22:35:00,
2013-09-15 15:50:00,66.6,63.6,29.45,SW,225,1.7,-999.0,90,-99.99,,,0.00,Acu-Link.com,2013-09-15 22:50:00,
2013-09-15 16:05:00,66.4,63.7,29.45,ESE,112,3.7,-999.0,91,-99.99,,,0.00,Acu-Link.com,2013-09-15 23:05:00,
2013-09-15 16:20:00,65.5,64.3,29.47,East,90,1.1,-999.0,96,-99.99,,,0.02,Acu-Link.com,2013-09-15 23:20:00,
2013-09-15 16:35:00,65.8,64.6,29.46,South,180,0.0,-999.0,96,-99.99,,,0.02,Acu-Link.com,2013-09-15 23:35:00,
2013-09-15 16:51:00,66.4,64.6,29.46,ESE,112,2.7,-999.0,94,-99.99,,,0.02,Acu-Link.com,2013-09-15 23:51:00,
2013-09-15 17:06:00,65.7,63.6,29.47,SSW,202,7.3,-999.0,93,-99.99,,,0.02,Acu-Link.com,2013-09-16 00:06:00,
2013-09-15 17:21:00,64.9,63.1,29.46,South,180,3.2,-999.0,94,-99.99,,,0.02,Acu-Link.com,2013-09-16 00:21:00,
2013-09-15 17:36:00,64.8,63.0,29.46,SW,225,4.7,-999.0,94,-99.99,,,0.02,Acu-Link.com,2013-09-16 00:36:00,
2013-09-15 17:51:00,64.4,62.9,29.46,ESE,112,3.2,-999.0,95,-99.99,,,0.02,Acu-Link.com,2013-09-16 00:51:00,
2013-09-15 18:06:00,64.0,62.5,29.47,East,90,1.1,-999.0,95,-99.99,,,0.02,Acu-Link.com,2013-09-16 01:06:00,
2013-09-15 18:21:00,63.7,62.8,29.46,East,90,1.7,-999.0,97,-99.99,,,0.04,Acu-Link.com,2013-09-16 01:21:00,
2013-09-15 18:36:00,63.3,63.0,29.47,SE,135,2.7,-999.0,99,-99.99,,,0.04,Acu-Link.com,2013-09-16 01:36:00,
2013-09-15 18:51:00,63.1,62.8,29.47,SSW,202,2.7,-999.0,99,-99.99,,,0.08,Acu-Link.com,2013-09-16 01:51:00,
2013-09-15 19:06:00,63.0,62.7,29.46,SSE,157,1.1,-999.0,99,-99.99,,,0.15,Acu-Link.com,2013-09-16 02:06:00,
2013-09-15 19:22:00,63.0,62.7,29.48,SSE,157,0.0,-999.0,99,-99.99,,,0.15,Acu-Link.com,2013-09-16 02:22:00,
2013-09-15 19:37:00,63.1,62.8,29.47,ESE,112,1.1,-999.0,99,-99.99,,,0.15,Acu-Link.com,2013-09-16 02:37:00,
2013-09-15 19:52:00,63.1,62.8,29.46,SSE,157,2.2,-999.0,99,-99.99,,,0.15,Acu-Link.com,2013-09-16 02:52:00,
2013-09-15 20:07:00,63.1,62.8,29.47,South,180,3.2,-999.0,99,-99.99,,,0.15,Acu-Link.com,2013-09-16 03:07:00,
2013-09-15 20:22:00,63.3,63.0,29.48,South,180,2.7,-999.0,99,-99.99,,,0.15,Acu-Link.com,2013-09-16 03:22:00,
2013-09-15 20:37:00,63.3,63.0,29.50,SE,135,3.2,-999.0,99,-99.99,,,0.15,Acu-Link.com,2013-09-16 03:37:00,
2013-09-15 20:52:00,63.5,63.2,29.49,WSW,247,3.7,-999.0,99,-99.99,,,0.15,Acu-Link.com,2013-09-16 03:52:00,
2013-09-15 21:07:00,63.9,63.3,29.49,SE,135,4.2,-999.0,98,-99.99,,,0.15,Acu-Link.com,2013-09-16 04:07:00,
2013-09-15 21:22:00,63.9,63.0,29.49,ESE,112,3.7,-999.0,97,-99.99,,,0.15,Acu-Link.com,2013-09-16 04:22:00,
2013-09-15 21:38:00,63.9,63.0,29.48,SSE,157,0.0,-999.0,97,-99.99,,,0.15,Acu-Link.com,2013-09-16 04:38:00,
2013-09-15 21:53:00,64.0,63.1,29.49,SSW,202,0.0,-999.0,97,-99.99,,,0.15,Acu-Link.com,2013-09-16 04:53:00,
2013-09-15 22:08:00,64.0,63.1,29.48,ESE,112,0.0,-999.0,97,-99.99,,,0.15,Acu-Link.com,2013-09-16 05:08:00,
2013-09-15 22:23:00,64.0,62.8,29.49,NNE,22,5.3,-999.0,96,-99.99,,,0.15,Acu-Link.com,2013-09-16 05:23:00,
2013-09-15 22:38:00,64.0,62.8,29.48,NNE,22,3.7,-999.0,96,-99.99,,,0.15,Acu-Link.com,2013-09-16 05:38:00,
2013-09-15 22:53:00,64.0,62.8,29.49,ESE,112,3.7,-999.0,96,-99.99,,,0.15,Acu-Link.com,2013-09-16 05:53:00,
2013-09-15 23:08:00,64.0,62.8,29.49,ESE,112,1.7,-999.0,96,-99.99,,,0.15,Acu-Link.com,2013-09-16 06:08:00,
2013-09-15 23:23:00,64.0,62.8,29.49,SW,225,2.7,-999.0,96,-99.99,,,0.15,Acu-Link.com,2013-09-16 06:23:00,
2013-09-15 23:38:00,63.9,63.0,29.49,South,180,1.7,-999.0,97,-99.99,,,0.15,Acu-Link.com,2013-09-16 06:38:00,
2013-09-15 23:54:00,63.5,62.3,29.49,ESE,112,4.2,-999.0,96,-99.99,,,0.15,Acu-Link.com,2013-09-16 06:54:00,